This is the latest recevied weather packets stored in our database for station/object KO4FR. If no packets are shown the sender has not sent any weather packets the latest 10 day(s).
| Time | Temp. | Humidity | Pressure | Rain* | Wind** | Luminosity | Snow |
|---|---|---|---|---|---|---|---|
| 1778077807 | 19.44° C | 66% | 1013.5 hPa | 0 mm | - | - | - |
| 1778077507 | 19.44° C | 66% | 1013.5 hPa | 0 mm | - | - | - |
| 1778077206 | 20° C | 66% | 1013.6 hPa | 0 mm | - | - | - |
| 1778076906 | 20° C | 65% | 1013.6 hPa | 0 mm | - | - | - |
| 1778076607 | 19.44° C | 66% | 1013.5 hPa | 0 mm | - | - | - |
| 1778076307 | 19.44° C | 67% | 1013.6 hPa | 0 mm | - | - | - |
| 1778076007 | 18.89° C | 67% | 1013.3 hPa | 0 mm | - | - | - |
| 1778075707 | 18.89° C | 67% | 1013.4 hPa | 0 mm | - | - | - |
| 1778075406 | 18.89° C | 68% | 1013.6 hPa | 0 mm | - | - | - |
| 1778075106 | 18.89° C | 68% | 1013.6 hPa | 0 mm | - | - | - |
| 1778074806 | 18.33° C | 68% | 1013.6 hPa | 0 mm | - | - | - |
| 1778074507 | 18.33° C | 68% | 1013.5 hPa | 0 mm | - | - | - |
| 1778074206 | 18.33° C | 69% | 1013.5 hPa | 0 mm | - | - | - |
| 1778073907 | 18.33° C | 69% | 1013.5 hPa | 0 mm | - | - | - |
| 1778073606 | 18.33° C | 69% | 1013.5 hPa | 0 mm | - | - | - |
| 1778073307 | 18.33° C | 69% | 1013.5 hPa | 0 mm | - | - | - |
| 1778073007 | 18.33° C | 68% | 1013.6 hPa | 0 mm | - | - | - |
| 1778072706 | 18.33° C | 68% | 1013.6 hPa | 0 mm | - | - | - |
| 1778072407 | 18.33° C | 68% | 1013.5 hPa | 0 mm | - | - | - |
| 1778072107 | 18.33° C | 68% | 1013.3 hPa | 0 mm | - | - | - |
| 1778071806 | 18.33° C | 68% | 1013.3 hPa | 0 mm | - | - | - |
| 1778071506 | 18.33° C | 68% | 1013.3 hPa | 0 mm | - | - | - |
| 1778071206 | 18.33° C | 68% | 1013.4 hPa | 0 mm | - | - | - |
| 1778070907 | 17.78° C | 68% | 1013.2 hPa | 0 mm | - | - | - |
| 1778070607 | 17.78° C | 68% | 1013.1 hPa | 0 mm | - | - | - |
* Rain latest hour (hover to see other rain measurements)
** Current wind speed in m/s (hover to see current wind gust speed)